Aérodrome :
LOGIN :

S'inscrire | Disclaimer

   EN    FR    IT 

 










Légende :    VFR   VFR Marginal   IFR   IFR Intensif   IFR Très Intensif
Visi : 
Plafond : 
>= 8 km
>= 3000ft
5 à 8 km
1000 à 3000 ft
1500m à 5 km
500 à 1000 ft
800 à 1500m
200 à 500 ft
< 800m
< 200 ft
Symboles :   Orages  Brouillard  Fortes neiges  Fortes précipitations  Vent > 20 kt
SIGMETs :   Divers  Orages  Givrage  Turbulence  Onde Orograph.  Cendres Volcan.







- Altitude de l'aérodrome : 459 ft
- Code IATA : CER
- Voir les cartes d'approche


LFRC - Cherbourg / Maupertus

DERNIER METAR :
  • 231530Z AUTO 23018KT 4500 -DZ BR OVC005 12/11 Q1018 TEMPO 1500 DZ BR BECMG 20015G25KT

METARs EXPIRÉS :
  • 231500Z AUTO 23018KT 3000 -RA BR OVC005 12/11 Q1017 TEMPO DZ BECMG 20015G25KT
  • 231430Z AUTO 23019KT 2500 -DZ BR OVC005 12/11 Q1017 TEMPO DZ BECMG 20015G25KT
  • 231400Z AUTO 23021G32KT 2300 -DZ BR OVC004 12/11 Q1017 TEMPO DZ
  • 231330Z AUTO 22017KT 2100 -RADZ BR OVC004 12/11 Q1018 TEMPO DZ BECMG 20015G25KT
  • 231300Z AUTO 22016KT 2600 -DZ BR OVC004 12/11 Q1018 TEMPO DZ BECMG 20015G25KT

TAF TAF LFRC
Valide du 23 à 15h jusqu'au 24 à 00h UTC


231400Z 2315/2324 20015G25KT 9999 OVC008
TEMPO 2315/2324 3000 DZ OVC004
PROB30
TEMPO 2315/2324 1500 DZ BR BKN002
Pas de NOTAMs connus pour ce terrain.



MET'MAP, la Météo Aéronautique d'un coup d'oeil ! - Copyright ORBIFLY Décembre 2007 - Disclaimer

ORBIFLY MET'MAP TEAM :

Programmation & Développement : Alexandra Zaïnal
Conception & Développement : Baudouin d'Aumeries
Co-Programmation & Développement : Marc-Olivier Méhu
Soutien technique & logistique : Manuel Goepfert

Contact : metmap@orbifly.com




SOURCES & CREDITS :

   NOAA